Capewater — PBPQ — position and weather

sailwx.info

Track history (hours):
 
Tides and Currents Weather Stations Pressure Air Temp Water Temp Dewpoint Dewpoint Depression Visibility Wind Speed Wind Dir Waves Ship Positions

Capewater

Last reported at 2017-Sep-22 01:59 UTC. Time now 2017-Sep-23 18:35 UTC.
Position N 49°29' W 000°03'.

Length 100 m; draft 6.6 m.

Type: Tanker. MMSI: 246346000.

Date/timePositionNaut miles runAvg speedWind from/ knotsBaromVisibWave heightAir tempDewpointWater temp
2017-Sep-22 01:59N 49°29' W 000°03'0 0.1
2017-Sep-22 01:29N 49°29' W 000°03'0 0.1
2017-Sep-22 00:59N 49°29' W 000°03'0 0.1
2017-Sep-22 00:29N 49°29' W 000°03'0 0.0
2017-Sep-21 23:59N 49°29' W 000°03'0 0.0
2017-Sep-21 23:29N 49°29' W 000°03'0 0.0
2017-Sep-21 22:59N 49°29' W 000°03'0 0.0
2017-Sep-21 22:29N 49°29' W 000°03'0 0.0
2017-Sep-21 21:59N 49°29' W 000°03'0 0.0
2017-Sep-21 21:26N 49°29' W 000°03'0 0.0
2017-Sep-21 20:59N 49°29' W 000°03'0 0.1
2017-Sep-21 20:29N 49°29' W 000°03'0 0.1
2017-Sep-21 19:58N 49°29' W 000°03'2 4.8
2017-Sep-21 19:30N 49°30' W 000°06'714.9
2017-Sep-21 19:00N 49°33' W 000°17'9711.3
2017-Sep-21 10:26N 49°52' W 002°43'614.0
2017-Sep-21 10:00N 49°51' W 002°52'714.2
2017-Sep-21 09:30N 49°50' W 003°03'714.4
2017-Sep-21 09:00N 49°49' W 003°14'714.5
2017-Sep-21 08:30N 49°48' W 003°25'714.6
2017-Sep-21 08:00N 49°47' W 003°36'714.6
2017-Sep-21 07:30N 49°46' W 003°48'714.7
2017-Sep-21 07:00N 49°46' W 003°59'86 8.8
2017-Sep-20 21:17N 50°21' W 006°01'1310.2
2017-Sep-20 19:58N 50°34' W 006°01'5 9.7
2017-Sep-20 19:27N 50°39' W 005°59'80 9.3
2017-Sep-20 10:51N 51°59' W 005°49'410.8
2017-Sep-20 10:27N 52°03' W 005°47'510.2
2017-Sep-20 09:56N 52°08' W 005°44'410.7
2017-Sep-20 09:31N 52°12' W 005°42'510.3
2017-Sep-20 09:00N 52°17' W 005°38'510.1
2017-Sep-20 08:30N 52°22' W 005°35'8911.7
2017-Sep-20 00:51N 53°34' W 004°09'515.0
2017-Sep-20 00:30N 53°34' W 003°60'714.5
2017-Sep-20 00:00N 53°34' W 003°48'714.2
2017-Sep-19 23:30N 53°34' W 003°36'713.8
2017-Sep-19 23:00N 53°33' W 003°24'510.7
2017-Sep-19 22:30N 53°31' W 003°16'611.9
2017-Sep-19 22:00N 53°30' W 003°06'611.5
2017-Sep-19 21:29N 53°25' W 003°01'4 8.8
2017-Sep-19 21:00N 53°21' W 002°58'2 4.1
2017-Sep-19 20:30N 53°19' W 002°57'0 0.6
2017-Sep-19 19:54N 53°19' W 002°57'0 0.0
2017-Sep-19 19:30N 53°19' W 002°57'0 0.0
2017-Sep-19 18:57N 53°19' W 002°57'0 0.0
2017-Sep-19 18:27N 53°19' W 002°57'0 0.0
2017-Sep-19 17:57N 53°19' W 002°57'0 0.0
2017-Sep-19 17:30N 53°19' W 002°57'0 0.0
2017-Sep-19 17:00N 53°19' W 002°57'0 0.0
2017-Sep-19 16:24N 53°19' W 002°57'0 0.0
2017-Sep-19 15:57N 53°19' W 002°57'1 1.2
2017-Sep-19 15:30N 53°19' W 002°56'2 4.2
2017-Sep-19 15:00N 53°17' W 002°53'1 2.7
2017-Sep-19 14:30N 53°17' W 002°51'0 0.0
2017-Sep-19 14:00N 53°17' W 002°51'0 0.0
2017-Sep-19 13:30N 53°17' W 002°51'0 0.0
2017-Sep-19 13:00N 53°17' W 002°51'0 0.0
2017-Sep-19 12:30N 53°17' W 002°51'0 0.0
2017-Sep-19 12:00N 53°17' W 002°51'0 0.0
2017-Sep-19 11:30N 53°17' W 002°51'0 0.0
2017-Sep-19 11:00N 53°17' W 002°51'0 0.0
2017-Sep-19 10:30N 53°17' W 002°51'0 0.0
2017-Sep-19 10:00N 53°17' W 002°51'0 0.0
2017-Sep-19 09:30N 53°17' W 002°51'0 0.0
2017-Sep-19 09:00N 53°17' W 002°51'0 0.0
2017-Sep-19 08:27N 53°17' W 002°51'0 0.0
2017-Sep-19 07:57N 53°17' W 002°51'0 0.0
2017-Sep-19 07:30N 53°17' W 002°51'0 0.0
2017-Sep-19 07:00N 53°17' W 002°51'0 0.0
2017-Sep-19 06:27N 53°17' W 002°51'0 0.0
2017-Sep-19 06:00N 53°17' W 002°51'0 0.0
2017-Sep-19 05:27N 53°17' W 002°51'0 0.0
2017-Sep-19 05:00N 53°17' W 002°51'0 0.0
2017-Sep-19 04:30N 53°17' W 002°51'0 0.0
2017-Sep-19 04:00N 53°17' W 002°51'0 0.0
2017-Sep-19 03:30N 53°17' W 002°51'0 0.0
2017-Sep-19 03:00N 53°17' W 002°51'0 0.0
2017-Sep-19 02:30N 53°17' W 002°51'0 0.0
2017-Sep-19 02:00N 53°17' W 002°51'0 0.0
2017-Sep-19 01:27N 53°17' W 002°51'0 0.0
2017-Sep-19 01:00N 53°17' W 002°51'0 0.0
2017-Sep-19 00:30N 53°17' W 002°51'0 0.0
2017-Sep-18 23:57N 53°17' W 002°51'0 0.0
2017-Sep-18 23:30N 53°17' W 002°51'0 0.0
2017-Sep-18 23:00N 53°17' W 002°51'0 0.0
2017-Sep-18 22:30N 53°17' W 002°51'0 0.0
2017-Sep-18 21:57N 53°17' W 002°51'0 0.0
2017-Sep-18 21:30N 53°17' W 002°51'0 0.0
2017-Sep-18 21:00N 53°17' W 002°51'0 0.0
2017-Sep-18 20:30N 53°17' W 002°51'0 0.0
2017-Sep-18 20:00N 53°17' W 002°51'0 0.0
2017-Sep-18 19:30N 53°17' W 002°51'0 0.0
2017-Sep-18 19:00N 53°17' W 002°51'0 0.0
2017-Sep-18 18:27N 53°17' W 002°51'0 0.0
2017-Sep-18 17:57N 53°17' W 002°51'0 0.0
2017-Sep-18 17:30N 53°17' W 002°51'0 0.0
2017-Sep-18 16:57N 53°17' W 002°51'0 0.0
2017-Sep-18 16:24N 53°17' W 002°51'0 0.0
2017-Sep-18 16:00N 53°17' W 002°51'0 0.0
2017-Sep-18 15:30N 53°17' W 002°51'0 0.0
2017-Sep-18 15:00N 53°17' W 002°51'0 0.0
2017-Sep-18 14:30N 53°17' W 002°51'0 0.0
2017-Sep-18 14:00N 53°17' W 002°51'0 0.0
2017-Sep-18 13:30N 53°17' W 002°51'0 0.0
2017-Sep-18 13:00N 53°17' W 002°51'0 0.0
2017-Sep-18 12:27N 53°17' W 002°51'0 0.0
2017-Sep-18 12:00N 53°17' W 002°51'0 0.0
2017-Sep-18 11:24N 53°17' W 002°51'0 0.0
2017-Sep-18 10:54N 53°17' W 002°51'0 0.0
2017-Sep-18 10:30N 53°17' W 002°51'0 0.0
2017-Sep-18 10:00N 53°17' W 002°51'0 0.0
2017-Sep-18 09:30N 53°17' W 002°51'0 0.0
2017-Sep-18 09:00N 53°17' W 002°51'0 0.0
2017-Sep-18 08:30N 53°17' W 002°51'0 0.0
2017-Sep-18 08:00N 53°17' W 002°51'0 0.0
2017-Sep-18 07:27N 53°17' W 002°51'0 0.0
2017-Sep-18 07:00N 53°17' W 002°51'0 0.0
2017-Sep-18 06:30N 53°17' W 002°51'0 0.0
2017-Sep-18 06:00N 53°17' W 002°51'0 0.0
2017-Sep-18 05:27N 53°17' W 002°51'0 0.0
2017-Sep-18 05:00N 53°17' W 002°51'0 0.0
2017-Sep-18 04:30N 53°17' W 002°51'0 0.0
2017-Sep-18 04:00N 53°17' W 002°51'0 0.0
2017-Sep-18 03:30N 53°17' W 002°51'0 0.0
2017-Sep-18 03:00N 53°17' W 002°51'0 0.0
2017-Sep-18 02:30N 53°17' W 002°51'0 0.0
2017-Sep-18 02:00N 53°17' W 002°51'0 0.0
2017-Sep-18 01:30N 53°17' W 002°51'0 0.0
2017-Sep-18 00:57N 53°17' W 002°51'0 0.0
2017-Sep-18 00:30N 53°17' W 002°51'0 0.0
2017-Sep-18 00:00N 53°17' W 002°51'0 0.0
2017-Sep-17 23:27N 53°17' W 002°51'0 0.0
2017-Sep-17 22:59N 53°17' W 002°51'1 1.3
2017-Sep-17 22:30N 53°17' W 002°52'2 4.2
2017-Sep-17 22:00N 53°18' W 002°55'2 3.1
2017-Sep-17 21:30N 53°19' W 002°57'1 1.2
2017-Sep-17 21:00N 53°20' W 002°57'510.6
2017-Sep-17 20:30N 53°25' W 003°01'714.4
2017-Sep-17 20:00N 53°31' W 003°07'714.2
2017-Sep-17 19:30N 53°31' W 003°19'510.2
2017-Sep-17 19:00N 53°30' W 003°27'1 1.0
2017-Sep-17 18:31N 53°29' W 003°27'0 0.0
2017-Sep-17 18:01N 53°29' W 003°27'0 0.0
2017-Sep-17 17:30N 53°29' W 003°27'0 0.0
2017-Sep-17 17:00N 53°29' W 003°27'0 0.0
2017-Sep-17 16:30N 53°29' W 003°27'0 0.0
2017-Sep-17 16:00N 53°29' W 003°27'0 0.0
2017-Sep-17 15:30N 53°29' W 003°27'0 0.2
2017-Sep-17 15:00N 53°29' W 003°27'0 0.1
2017-Sep-17 14:30N 53°29' W 003°27'0 0.0
2017-Sep-17 14:00N 53°29' W 003°27'0 0.0
2017-Sep-17 13:30N 53°29' W 003°27'0 0.0
2017-Sep-17 13:00N 53°29' W 003°27'0 0.0
2017-Sep-17 12:27N 53°29' W 003°27'0 0.0
2017-Sep-17 12:00N 53°29' W 003°27'0 0.0
2017-Sep-17 11:28N 53°29' W 003°27'0 0.0
2017-Sep-17 10:54N 53°29' W 003°27'0 0.1
2017-Sep-17 10:24N 53°29' W 003°27'0 0.0
2017-Sep-17 10:00N 53°29' W 003°27'1 1.1
2017-Sep-17 09:30N 53°30' W 003°28'713.3
2017-Sep-17 09:00N 53°31' W 003°39'714.4
2017-Sep-17 08:30N 53°31' W 003°51'714.7
2017-Sep-17 08:00N 53°30' W 004°04'13713.2
2017-Sep-16 21:36N 51°30' W 005°51'213.1
2017-Sep-16 21:27N 51°28' W 005°51'4613.1
2017-Sep-16 17:55N 50°42' W 005°53'613.0
2017-Sep-16 17:27N 50°36' W 005°53'813.0
2017-Sep-16 16:52N 50°28' W 005°53'512.8
2017-Sep-16 16:27N 50°23' W 005°53'65 9.5
2017-Sep-16 09:36N 49°49' W 004°26'214.3
2017-Sep-16 09:28N 49°50' W 004°23'714.5
2017-Sep-16 09:00N 49°51' W 004°13'714.7
2017-Sep-16 08:30N 49°53' W 004°02'715.0
2017-Sep-16 08:00N 49°54' W 003°51'714.7
2017-Sep-16 07:30N 49°56' W 003°40'714.7
2017-Sep-16 07:00N 49°56' W 003°28'714.7
2017-Sep-16 06:30N 49°57' W 003°17'714.3
2017-Sep-16 06:00N 49°58' W 003°06'714.0
2017-Sep-16 05:30N 49°60' W 002°56'713.5
2017-Sep-16 05:00N 50°02' W 002°46'9014.2
2017-Sep-15 22:40N 50°23' W 000°29'316.1
2017-Sep-15 22:31N 50°24' W 000°25'816.0
2017-Sep-15 21:59N 50°26' W 000°12'815.7
2017-Sep-15 21:31N 50°28' W 000°01'815.5
2017-Sep-15 21:01N 50°30' E 000°11'815.3
2017-Sep-15 20:30N 50°32' E 000°23'714.9
2017-Sep-15 20:01N 50°34' E 000°34'714.6
2017-Sep-15 19:31N 50°39' E 000°43'714.2
2017-Sep-15 19:00N 50°43' E 000°52'713.7
2017-Sep-15 18:30N 50°48' E 000°60'713.6
2017-Sep-15 17:59N 50°53' E 001°08'613.7
2017-Sep-15 17:31N 50°57' E 001°15'714.0
2017-Sep-15 17:00N 51°02' E 001°24'815.1
2017-Sep-15 16:31N 51°07' E 001°33'815.9
2017-Sep-15 16:01N 51°12' E 001°42'815.9
2017-Sep-15 15:31N 51°18' E 001°50'816.1
2017-Sep-15 15:00N 51°25' E 001°56'815.4
2017-Sep-15 14:30N 51°32' E 002°03'510.1
2017-Sep-15 14:00N 51°36' E 002°09'714.8
2017-Sep-15 13:30N 51°41' E 002°17'3410.4
2017-Sep-15 10:13N 51°50' E 003°10'412.0
2017-Sep-15 09:55N 51°47' E 003°14'4 3.2
2017-Sep-15 08:37N 51°48' E 003°21'0 0.1
2017-Sep-15 08:22N 51°48' E 003°21'0 0.0
2017-Sep-15 07:55N 51°48' E 003°21'0 0.0
2017-Sep-15 05:55N 51°48' E 003°21'0 0.0
2017-Sep-15 05:01N 51°48' E 003°21'0 0.0
2017-Sep-15 04:58N 51°48' E 003°21'0 0.0
2017-Sep-15 04:28N 51°48' E 003°21'0 0.0
2017-Sep-15 03:55N 51°48' E 003°21'0 0.0
2017-Sep-15 03:28N 51°48' E 003°21'0 0.0
2017-Sep-15 02:58N 51°48' E 003°21'0 0.0
2017-Sep-15 02:28N 51°48' E 003°21'0 0.0
2017-Sep-15 01:58N 51°48' E 003°21'0 0.0
2017-Sep-15 01:22N 51°48' E 003°21'0 0.1
2017-Sep-15 00:58N 51°48' E 003°21'0 0.1
2017-Sep-15 00:25N 51°48' E 003°21'0 0.0
2017-Sep-14 23:52N 51°48' E 003°21'0 0.0
2017-Sep-14 23:28N 51°48' E 003°21'3 5.4
2017-Sep-14 22:51N 51°45' E 003°18'410.4
2017-Sep-14 22:30N 51°42' E 003°15'4 8.9
2017-Sep-14 22:00N 51°39' E 003°20'714.4
2017-Sep-14 21:30N 51°33' E 003°25'815.0
2017-Sep-14 21:00N 51°27' E 003°33'611.1
2017-Sep-14 20:30N 51°24' E 003°41'714.3
2017-Sep-14 20:00N 51°21' E 003°51'612.3
2017-Sep-14 19:30N 51°25' E 003°58'4 8.6
2017-Sep-14 19:00N 51°23' E 004°03'611.8
2017-Sep-14 18:31N 51°24' E 004°13'4 8.0
2017-Sep-14 18:00N 51°21' E 004°17'0 0.0
2017-Sep-14 17:30N 51°21' E 004°17'0 0.2
2017-Sep-14 17:01N 51°21' E 004°17'1 2.3
2017-Sep-14 16:30N 51°20' E 004°18'1 1.3
2017-Sep-14 15:52N 51°19' E 004°18'0 0.0
2017-Sep-14 15:25N 51°19' E 004°18'0 0.0
2017-Sep-14 14:49N 51°19' E 004°18'0 0.0
2017-Sep-14 14:25N 51°19' E 004°18'0 0.0
2017-Sep-14 13:55N 51°19' E 004°18'0 0.0
2017-Sep-14 13:28N 51°19' E 004°18'0 0.0
2017-Sep-14 12:49N 51°19' E 004°18'0 0.0
2017-Sep-14 12:28N 51°19' E 004°18'0 0.0
2017-Sep-14 11:55N 51°19' E 004°18'0 0.0
2017-Sep-14 11:28N 51°19' E 004°18'0 0.0
2017-Sep-14 10:52N 51°19' E 004°18'0 0.0
2017-Sep-14 10:28N 51°19' E 004°18'0 0.0
2017-Sep-14 09:55N 51°19' E 004°18'0 0.0
2017-Sep-14 09:25N 51°19' E 004°18'0 0.0
2017-Sep-14 08:19N 51°19' E 004°18'0 0.0
2017-Sep-14 07:58N 51°19' E 004°18'0 0.0
2017-Sep-14 07:28N 51°19' E 004°18'0 0.0
2017-Sep-14 06:58N 51°19' E 004°18'0 0.0
2017-Sep-14 06:22N 51°19' E 004°18'0 0.0
2017-Sep-14 05:58N 51°19' E 004°18'0 0.0
2017-Sep-14 05:22N 51°19' E 004°18'0 0.0
2017-Sep-14 04:58N 51°19' E 004°18'0 0.0
2017-Sep-14 04:25N 51°19' E 004°18'0 0.0
2017-Sep-14 03:58N 51°19' E 004°18'0 0.0
2017-Sep-14 03:25N 51°19' E 004°18'0 0.0
2017-Sep-14 02:52N 51°19' E 004°18'0 0.0
2017-Sep-14 02:16N 51°19' E 004°18'0 0.0
2017-Sep-14 01:58N 51°19' E 004°18'0 0.0
2017-Sep-14 01:25N 51°19' E 004°18'0 0.0
2017-Sep-14 00:34N 51°19' E 004°18'0 0.1
2017-Sep-14 00:28N 51°19' E 004°18'0 0.0
2017-Sep-13 23:58N 51°19' E 004°18'0 0.0
2017-Sep-13 23:28N 51°19' E 004°18'0 0.0
2017-Sep-13 22:46N 51°19' E 004°18'0 0.5
2017-Sep-13 22:30N 51°19' E 004°19'2 3.7
2017-Sep-13 22:00N 51°21' E 004°17'0 0.2
2017-Sep-13 21:30N 51°21' E 004°17'1 2.6
2017-Sep-13 21:00N 51°21' E 004°15'2 4.9
2017-Sep-13 20:30N 51°23' E 004°13'5 9.0
2017-Sep-13 20:00N 51°22' E 004°06'510.1
2017-Sep-13 19:30N 51°26' E 004°00'611.2
2017-Sep-13 19:01N 51°22' E 003°55'510.9
2017-Sep-13 18:30N 51°21' E 003°46'0 0.1
2017-Sep-13 17:59N 51°21' E 003°46'0 0.0
2017-Sep-13 17:26N 51°21' E 003°46'0 0.0
2017-Sep-13 16:59N 51°21' E 003°46'0 0.0
2017-Sep-13 16:26N 51°21' E 003°46'0 0.0
2017-Sep-13 15:59N 51°21' E 003°46'0 0.0
2017-Sep-13 15:26N 51°21' E 003°46'0 0.0
2017-Sep-13 14:56N 51°21' E 003°46'0 0.0
2017-Sep-13 14:26N 51°21' E 003°46'0 0.0
2017-Sep-13 13:56N 51°21' E 003°46'0 0.0
2017-Sep-13 13:29N 51°21' E 003°46'0 0.0
2017-Sep-13 12:59N 51°21' E 003°46'0 0.0
2017-Sep-13 12:26N 51°21' E 003°46'0 0.0
2017-Sep-13 11:56N 51°21' E 003°46'0 0.0
2017-Sep-13 11:26N 51°21' E 003°46'0 0.0
2017-Sep-13 10:56N 51°21' E 003°46'0 0.0
2017-Sep-13 10:14N 51°21' E 003°46'0 0.0
2017-Sep-13 09:59N 51°21' E 003°46'0 0.0
2017-Sep-13 09:29N 51°21' E 003°46'0 0.0
2017-Sep-13 08:59N 51°21' E 003°46'0 0.0
2017-Sep-13 08:26N 51°21' E 003°46'0 0.0
2017-Sep-13 07:59N 51°21' E 003°46'0 0.0
2017-Sep-13 07:26N 51°21' E 003°46'0 0.0
2017-Sep-13 06:56N 51°21' E 003°46'0 0.0
2017-Sep-13 06:26N 51°21' E 003°46'0 0.0
2017-Sep-13 05:59N 51°21' E 003°46'0 0.0
2017-Sep-13 05:23N 51°21' E 003°46'0 0.0
2017-Sep-13 04:56N 51°21' E 003°46'0 0.0
2017-Sep-13 04:26N 51°21' E 003°46'0 0.0
2017-Sep-13 03:53N 51°21' E 003°46'0 0.0
2017-Sep-13 03:29N 51°21' E 003°46'0 0.0
2017-Sep-13 02:56N 51°21' E 003°46'0 0.0
2017-Sep-13 02:26N 51°21' E 003°46'0 0.0
2017-Sep-13 01:56N 51°21' E 003°46'0 0.0
2017-Sep-13 01:23N 51°21' E 003°46'0 0.0
2017-Sep-13 00:59N 51°21' E 003°46'0 0.0
2017-Sep-13 00:29N 51°21' E 003°46'0 0.0
2017-Sep-12 23:56N 51°21' E 003°46'0 0.0
2017-Sep-12 23:26N 51°21' E 003°46'0 0.0
2017-Sep-12 22:56N 51°21' E 003°46'0 0.0
2017-Sep-12 22:29N 51°21' E 003°46'0 0.0
2017-Sep-12 21:59N 51°21' E 003°46'0 0.0
2017-Sep-12 21:26N 51°21' E 003°46'0 0.0
2017-Sep-12 20:50N 51°21' E 003°46'0 0.0
2017-Sep-12 20:29N 51°21' E 003°46'0 0.0
2017-Sep-12 19:59N 51°21' E 003°46'0 0.0
2017-Sep-12 19:23N 51°21' E 003°46'0 0.0
2017-Sep-12 18:59N 51°21' E 003°46'0 0.0
2017-Sep-12 18:26N 51°21' E 003°46'0 0.0
2017-Sep-12 17:59N 51°21' E 003°46'0 0.0
2017-Sep-12 17:26N 51°21' E 003°46'0 0.0
2017-Sep-12 16:56N 51°21' E 003°46'0 0.0
2017-Sep-12 16:30N 51°21' E 003°46'1 2.4
2017-Sep-12 16:00N 51°22' E 003°45'612.3
2017-Sep-12 15:30N 51°26' E 003°38'816.2
2017-Sep-12 15:00N 51°25' E 003°26'715.0
2017-Sep-12 14:31N 51°24' E 003°14'714.1
2017-Sep-12 14:00N 51°24' E 003°02'613.0
2017-Sep-12 13:30N 51°22' E 002°53'612.5
2017-Sep-12 13:00N 51°22' E 002°43'510.0
2017-Sep-12 12:30N 51°21' E 002°35'3 5.3
2017-Sep-12 12:00N 51°20' E 002°31'0 0.1
2017-Sep-12 11:30N 51°20' E 002°31'0 0.0
2017-Sep-12 11:00N 51°20' E 002°31'0 0.1
2017-Sep-12 10:30N 51°20' E 002°31'0 0.2
2017-Sep-12 10:00N 51°20' E 002°32'0 0.1
2017-Sep-12 09:30N 51°20' E 002°32'0 0.1
2017-Sep-12 09:00N 51°20' E 002°32'0 0.0
2017-Sep-12 08:30N 51°20' E 002°32'0 0.0
2017-Sep-12 08:00N 51°20' E 002°32'0 0.0
2017-Sep-12 07:30N 51°20' E 002°32'0 0.0
2017-Sep-12 07:00N 51°20' E 002°32'0 0.0
2017-Sep-12 06:30N 51°20' E 002°32'0 0.0
2017-Sep-12 06:00N 51°20' E 002°32'0 0.0
2017-Sep-12 05:30N 51°20' E 002°32'0 0.0
2017-Sep-12 05:00N 51°20' E 002°32'0 0.0
2017-Sep-12 04:30N 51°20' E 002°32'0 0.0
2017-Sep-12 04:00N 51°20' E 002°32'0 0.0
2017-Sep-12 03:30N 51°20' E 002°32'0 0.0
2017-Sep-12 03:00N 51°20' E 002°32'0 0.1
2017-Sep-12 02:30N 51°20' E 002°32'0 0.1
2017-Sep-12 02:00N 51°20' E 002°32'  
Track history (hours):
 
Tides and Currents Weather Stations Pressure Air Temp Water Temp Dewpoint Dewpoint Depression Visibility Wind Speed Wind Dir Waves Ship Positions

Capewater

Last reported at 2017-Sep-22 01:59 UTC. Time now 2017-Sep-23 18:35 UTC.
Position N 49°29' W 000°03'.

Length 100 m; draft 6.6 m.

Type: Tanker. MMSI: 246346000.

Date/timePositionNaut miles runAvg speedWind from/ knotsBaromVisibWave heightAir tempDewpointWater temp
2017-Sep-22 01:59N 49°29' W 000°03'0 0.1
2017-Sep-22 01:29N 49°29' W 000°03'0 0.1
2017-Sep-22 00:59N 49°29' W 000°03'0 0.1
2017-Sep-22 00:29N 49°29' W 000°03'0 0.0
2017-Sep-21 23:59N 49°29' W 000°03'0 0.0
2017-Sep-21 23:29N 49°29' W 000°03'0 0.0
2017-Sep-21 22:59N 49°29' W 000°03'0 0.0
2017-Sep-21 22:29N 49°29' W 000°03'0 0.0
2017-Sep-21 21:59N 49°29' W 000°03'0 0.0
2017-Sep-21 21:26N 49°29' W 000°03'0 0.0
2017-Sep-21 20:59N 49°29' W 000°03'0 0.1
2017-Sep-21 20:29N 49°29' W 000°03'0 0.1
2017-Sep-21 19:58N 49°29' W 000°03'2 4.8
2017-Sep-21 19:30N 49°30' W 000°06'714.9
2017-Sep-21 19:00N 49°33' W 000°17'9711.3
2017-Sep-21 10:26N 49°52' W 002°43'614.0
2017-Sep-21 10:00N 49°51' W 002°52'714.2
2017-Sep-21 09:30N 49°50' W 003°03'714.4
2017-Sep-21 09:00N 49°49' W 003°14'714.5
2017-Sep-21 08:30N 49°48' W 003°25'714.6
2017-Sep-21 08:00N 49°47' W 003°36'714.6
2017-Sep-21 07:30N 49°46' W 003°48'714.7
2017-Sep-21 07:00N 49°46' W 003°59'86 8.8
2017-Sep-20 21:17N 50°21' W 006°01'1310.2
2017-Sep-20 19:58N 50°34' W 006°01'5 9.7
2017-Sep-20 19:27N 50°39' W 005°59'80 9.3
2017-Sep-20 10:51N 51°59' W 005°49'410.8
2017-Sep-20 10:27N 52°03' W 005°47'510.2
2017-Sep-20 09:56N 52°08' W 005°44'410.7
2017-Sep-20 09:31N 52°12' W 005°42'510.3
2017-Sep-20 09:00N 52°17' W 005°38'510.1
2017-Sep-20 08:30N 52°22' W 005°35'8911.7
2017-Sep-20 00:51N 53°34' W 004°09'515.0
2017-Sep-20 00:30N 53°34' W 003°60'714.5
2017-Sep-20 00:00N 53°34' W 003°48'714.2
2017-Sep-19 23:30N 53°34' W 003°36'713.8
2017-Sep-19 23:00N 53°33' W 003°24'510.7
2017-Sep-19 22:30N 53°31' W 003°16'611.9
2017-Sep-19 22:00N 53°30' W 003°06'611.5
2017-Sep-19 21:29N 53°25' W 003°01'4 8.8
2017-Sep-19 21:00N 53°21' W 002°58'2 4.1
2017-Sep-19 20:30N 53°19' W 002°57'0 0.6
2017-Sep-19 19:54N 53°19' W 002°57'0 0.0
2017-Sep-19 19:30N 53°19' W 002°57'0 0.0
2017-Sep-19 18:57N 53°19' W 002°57'0 0.0
2017-Sep-19 18:27N 53°19' W 002°57'0 0.0
2017-Sep-19 17:57N 53°19' W 002°57'0 0.0
2017-Sep-19 17:30N 53°19' W 002°57'0 0.0
2017-Sep-19 17:00N 53°19' W 002°57'0 0.0
2017-Sep-19 16:24N 53°19' W 002°57'0 0.0
2017-Sep-19 15:57N 53°19' W 002°57'1 1.2
2017-Sep-19 15:30N 53°19' W 002°56'2 4.2
2017-Sep-19 15:00N 53°17' W 002°53'1 2.7
2017-Sep-19 14:30N 53°17' W 002°51'0 0.0
2017-Sep-19 14:00N 53°17' W 002°51'0 0.0
2017-Sep-19 13:30N 53°17' W 002°51'0 0.0
2017-Sep-19 13:00N 53°17' W 002°51'0 0.0
2017-Sep-19 12:30N 53°17' W 002°51'0 0.0
2017-Sep-19 12:00N 53°17' W 002°51'0 0.0
2017-Sep-19 11:30N 53°17' W 002°51'0 0.0
2017-Sep-19 11:00N 53°17' W 002°51'0 0.0
2017-Sep-19 10:30N 53°17' W 002°51'0 0.0
2017-Sep-19 10:00N 53°17' W 002°51'0 0.0
2017-Sep-19 09:30N 53°17' W 002°51'0 0.0
2017-Sep-19 09:00N 53°17' W 002°51'0 0.0
2017-Sep-19 08:27N 53°17' W 002°51'0 0.0
2017-Sep-19 07:57N 53°17' W 002°51'0 0.0
2017-Sep-19 07:30N 53°17' W 002°51'0 0.0
2017-Sep-19 07:00N 53°17' W 002°51'0 0.0
2017-Sep-19 06:27N 53°17' W 002°51'0 0.0
2017-Sep-19 06:00N 53°17' W 002°51'0 0.0
2017-Sep-19 05:27N 53°17' W 002°51'0 0.0
2017-Sep-19 05:00N 53°17' W 002°51'0 0.0
2017-Sep-19 04:30N 53°17' W 002°51'0 0.0
2017-Sep-19 04:00N 53°17' W 002°51'0 0.0
2017-Sep-19 03:30N 53°17' W 002°51'0 0.0
2017-Sep-19 03:00N 53°17' W 002°51'0 0.0
2017-Sep-19 02:30N 53°17' W 002°51'0 0.0
2017-Sep-19 02:00N 53°17' W 002°51'0 0.0
2017-Sep-19 01:27N 53°17' W 002°51'0 0.0
2017-Sep-19 01:00N 53°17' W 002°51'0 0.0
2017-Sep-19 00:30N 53°17' W 002°51'0 0.0
2017-Sep-18 23:57N 53°17' W 002°51'0 0.0
2017-Sep-18 23:30N 53°17' W 002°51'0 0.0
2017-Sep-18 23:00N 53°17' W 002°51'0 0.0
2017-Sep-18 22:30N 53°17' W 002°51'0 0.0
2017-Sep-18 21:57N 53°17' W 002°51'0 0.0
2017-Sep-18 21:30N 53°17' W 002°51'0 0.0
2017-Sep-18 21:00N 53°17' W 002°51'0 0.0
2017-Sep-18 20:30N 53°17' W 002°51'0 0.0
2017-Sep-18 20:00N 53°17' W 002°51'0 0.0
2017-Sep-18 19:30N 53°17' W 002°51'0 0.0
2017-Sep-18 19:00N 53°17' W 002°51'0 0.0
2017-Sep-18 18:27N 53°17' W 002°51'0 0.0
2017-Sep-18 17:57N 53°17' W 002°51'0 0.0
2017-Sep-18 17:30N 53°17' W 002°51'0 0.0
2017-Sep-18 16:57N 53°17' W 002°51'0 0.0
2017-Sep-18 16:24N 53°17' W 002°51'0 0.0
2017-Sep-18 16:00N 53°17' W 002°51'0 0.0
2017-Sep-18 15:30N 53°17' W 002°51'0 0.0
2017-Sep-18 15:00N 53°17' W 002°51'0 0.0
2017-Sep-18 14:30N 53°17' W 002°51'0 0.0
2017-Sep-18 14:00N 53°17' W 002°51'0 0.0
2017-Sep-18 13:30N 53°17' W 002°51'0 0.0
2017-Sep-18 13:00N 53°17' W 002°51'0 0.0
2017-Sep-18 12:27N 53°17' W 002°51'0 0.0
2017-Sep-18 12:00N 53°17' W 002°51'0 0.0
2017-Sep-18 11:24N 53°17' W 002°51'0 0.0
2017-Sep-18 10:54N 53°17' W 002°51'0 0.0
2017-Sep-18 10:30N 53°17' W 002°51'0 0.0
2017-Sep-18 10:00N 53°17' W 002°51'0 0.0
2017-Sep-18 09:30N 53°17' W 002°51'0 0.0
2017-Sep-18 09:00N 53°17' W 002°51'0 0.0
2017-Sep-18 08:30N 53°17' W 002°51'0 0.0
2017-Sep-18 08:00N 53°17' W 002°51'0 0.0
2017-Sep-18 07:27N 53°17' W 002°51'0 0.0
2017-Sep-18 07:00N 53°17' W 002°51'0 0.0
2017-Sep-18 06:30N 53°17' W 002°51'0 0.0
2017-Sep-18 06:00N 53°17' W 002°51'0 0.0
2017-Sep-18 05:27N 53°17' W 002°51'0 0.0
2017-Sep-18 05:00N 53°17' W 002°51'0 0.0
2017-Sep-18 04:30N 53°17' W 002°51'0 0.0
2017-Sep-18 04:00N 53°17' W 002°51'0 0.0
2017-Sep-18 03:30N 53°17' W 002°51'0 0.0
2017-Sep-18 03:00N 53°17' W 002°51'0 0.0
2017-Sep-18 02:30N 53°17' W 002°51'0 0.0
2017-Sep-18 02:00N 53°17' W 002°51'0 0.0
2017-Sep-18 01:30N 53°17' W 002°51'0 0.0
2017-Sep-18 00:57N 53°17' W 002°51'0 0.0
2017-Sep-18 00:30N 53°17' W 002°51'0 0.0
2017-Sep-18 00:00N 53°17' W 002°51'0 0.0
2017-Sep-17 23:27N 53°17' W 002°51'0 0.0
2017-Sep-17 22:59N 53°17' W 002°51'1 1.3
2017-Sep-17 22:30N 53°17' W 002°52'2 4.2
2017-Sep-17 22:00N 53°18' W 002°55'2 3.1
2017-Sep-17 21:30N 53°19' W 002°57'1 1.2
2017-Sep-17 21:00N 53°20' W 002°57'510.6
2017-Sep-17 20:30N 53°25' W 003°01'714.4
2017-Sep-17 20:00N 53°31' W 003°07'714.2
2017-Sep-17 19:30N 53°31' W 003°19'510.2
2017-Sep-17 19:00N 53°30' W 003°27'1 1.0
2017-Sep-17 18:31N 53°29' W 003°27'0 0.0
2017-Sep-17 18:01N 53°29' W 003°27'0 0.0
2017-Sep-17 17:30N 53°29' W 003°27'0 0.0
2017-Sep-17 17:00N 53°29' W 003°27'0 0.0
2017-Sep-17 16:30N 53°29' W 003°27'0 0.0
2017-Sep-17 16:00N 53°29' W 003°27'0 0.0
2017-Sep-17 15:30N 53°29' W 003°27'0 0.2
2017-Sep-17 15:00N 53°29' W 003°27'0 0.1
2017-Sep-17 14:30N 53°29' W 003°27'0 0.0
2017-Sep-17 14:00N 53°29' W 003°27'0 0.0
2017-Sep-17 13:30N 53°29' W 003°27'0 0.0
2017-Sep-17 13:00N 53°29' W 003°27'0 0.0
2017-Sep-17 12:27N 53°29' W 003°27'0 0.0
2017-Sep-17 12:00N 53°29' W 003°27'0 0.0
2017-Sep-17 11:28N 53°29' W 003°27'0 0.0
2017-Sep-17 10:54N 53°29' W 003°27'0 0.1
2017-Sep-17 10:24N 53°29' W 003°27'0 0.0
2017-Sep-17 10:00N 53°29' W 003°27'1 1.1
2017-Sep-17 09:30N 53°30' W 003°28'713.3
2017-Sep-17 09:00N 53°31' W 003°39'714.4
2017-Sep-17 08:30N 53°31' W 003°51'714.7
2017-Sep-17 08:00N 53°30' W 004°04'13713.2
2017-Sep-16 21:36N 51°30' W 005°51'213.1
2017-Sep-16 21:27N 51°28' W 005°51'4613.1
2017-Sep-16 17:55N 50°42' W 005°53'613.0
2017-Sep-16 17:27N 50°36' W 005°53'813.0
2017-Sep-16 16:52N 50°28' W 005°53'512.8
2017-Sep-16 16:27N 50°23' W 005°53'65 9.5
2017-Sep-16 09:36N 49°49' W 004°26'214.3
2017-Sep-16 09:28N 49°50' W 004°23'714.5
2017-Sep-16 09:00N 49°51' W 004°13'714.7
2017-Sep-16 08:30N 49°53' W 004°02'715.0
2017-Sep-16 08:00N 49°54' W 003°51'714.7
2017-Sep-16 07:30N 49°56' W 003°40'714.7
2017-Sep-16 07:00N 49°56' W 003°28'714.7
2017-Sep-16 06:30N 49°57' W 003°17'714.3
2017-Sep-16 06:00N 49°58' W 003°06'714.0
2017-Sep-16 05:30N 49°60' W 002°56'713.5
2017-Sep-16 05:00N 50°02' W 002°46'9014.2
2017-Sep-15 22:40N 50°23' W 000°29'316.1
2017-Sep-15 22:31N 50°24' W 000°25'816.0
2017-Sep-15 21:59N 50°26' W 000°12'815.7
2017-Sep-15 21:31N 50°28' W 000°01'815.5
2017-Sep-15 21:01N 50°30' E 000°11'815.3
2017-Sep-15 20:30N 50°32' E 000°23'714.9
2017-Sep-15 20:01N 50°34' E 000°34'714.6
2017-Sep-15 19:31N 50°39' E 000°43'714.2
2017-Sep-15 19:00N 50°43' E 000°52'713.7
2017-Sep-15 18:30N 50°48' E 000°60'713.6
2017-Sep-15 17:59N 50°53' E 001°08'613.7
2017-Sep-15 17:31N 50°57' E 001°15'714.0
2017-Sep-15 17:00N 51°02' E 001°24'815.1
2017-Sep-15 16:31N 51°07' E 001°33'815.9
2017-Sep-15 16:01N 51°12' E 001°42'815.9
2017-Sep-15 15:31N 51°18' E 001°50'816.1
2017-Sep-15 15:00N 51°25' E 001°56'815.4
2017-Sep-15 14:30N 51°32' E 002°03'510.1
2017-Sep-15 14:00N 51°36' E 002°09'714.8
2017-Sep-15 13:30N 51°41' E 002°17'3410.4
2017-Sep-15 10:13N 51°50' E 003°10'412.0
2017-Sep-15 09:55N 51°47' E 003°14'4 3.2
2017-Sep-15 08:37N 51°48' E 003°21'0 0.1
2017-Sep-15 08:22N 51°48' E 003°21'0 0.0
2017-Sep-15 07:55N 51°48' E 003°21'0 0.0
2017-Sep-15 05:55N 51°48' E 003°21'0 0.0
2017-Sep-15 05:01N 51°48' E 003°21'0 0.0
2017-Sep-15 04:58N 51°48' E 003°21'0 0.0
2017-Sep-15 04:28N 51°48' E 003°21'0 0.0
2017-Sep-15 03:55N 51°48' E 003°21'0 0.0
2017-Sep-15 03:28N 51°48' E 003°21'0 0.0
2017-Sep-15 02:58N 51°48' E 003°21'0 0.0
2017-Sep-15 02:28N 51°48' E 003°21'0 0.0
2017-Sep-15 01:58N 51°48' E 003°21'0 0.0
2017-Sep-15 01:22N 51°48' E 003°21'0 0.1
2017-Sep-15 00:58N 51°48' E 003°21'0 0.1
2017-Sep-15 00:25N 51°48' E 003°21'0 0.0
2017-Sep-14 23:52N 51°48' E 003°21'0 0.0
2017-Sep-14 23:28N 51°48' E 003°21'3 5.4
2017-Sep-14 22:51N 51°45' E 003°18'410.4
2017-Sep-14 22:30N 51°42' E 003°15'4 8.9
2017-Sep-14 22:00N 51°39' E 003°20'714.4
2017-Sep-14 21:30N 51°33' E 003°25'815.0
2017-Sep-14 21:00N 51°27' E 003°33'611.1
2017-Sep-14 20:30N 51°24' E 003°41'714.3
2017-Sep-14 20:00N 51°21' E 003°51'612.3
2017-Sep-14 19:30N 51°25' E 003°58'4 8.6
2017-Sep-14 19:00N 51°23' E 004°03'611.8
2017-Sep-14 18:31N 51°24' E 004°13'4 8.0
2017-Sep-14 18:00N 51°21' E 004°17'0 0.0
2017-Sep-14 17:30N 51°21' E 004°17'0 0.2
2017-Sep-14 17:01N 51°21' E 004°17'1 2.3
2017-Sep-14 16:30N 51°20' E 004°18'1 1.3
2017-Sep-14 15:52N 51°19' E 004°18'0 0.0
2017-Sep-14 15:25N 51°19' E 004°18'0 0.0
2017-Sep-14 14:49N 51°19' E 004°18'0 0.0
2017-Sep-14 14:25N 51°19' E 004°18'0 0.0
2017-Sep-14 13:55N 51°19' E 004°18'0 0.0
2017-Sep-14 13:28N 51°19' E 004°18'0 0.0
2017-Sep-14 12:49N 51°19' E 004°18'0 0.0
2017-Sep-14 12:28N 51°19' E 004°18'0 0.0
2017-Sep-14 11:55N 51°19' E 004°18'0 0.0
2017-Sep-14 11:28N 51°19' E 004°18'0 0.0
2017-Sep-14 10:52N 51°19' E 004°18'0 0.0
2017-Sep-14 10:28N 51°19' E 004°18'0 0.0
2017-Sep-14 09:55N 51°19' E 004°18'0 0.0
2017-Sep-14 09:25N 51°19' E 004°18'0 0.0
2017-Sep-14 08:19N 51°19' E 004°18'0 0.0
2017-Sep-14 07:58N 51°19' E 004°18'0 0.0
2017-Sep-14 07:28N 51°19' E 004°18'0 0.0
2017-Sep-14 06:58N 51°19' E 004°18'0 0.0
2017-Sep-14 06:22N 51°19' E 004°18'0 0.0
2017-Sep-14 05:58N 51°19' E 004°18'0 0.0
2017-Sep-14 05:22N 51°19' E 004°18'0 0.0
2017-Sep-14 04:58N 51°19' E 004°18'0 0.0
2017-Sep-14 04:25N 51°19' E 004°18'0 0.0
2017-Sep-14 03:58N 51°19' E 004°18'0 0.0
2017-Sep-14 03:25N 51°19' E 004°18'0 0.0
2017-Sep-14 02:52N 51°19' E 004°18'0 0.0
2017-Sep-14 02:16N 51°19' E 004°18'0 0.0
2017-Sep-14 01:58N 51°19' E 004°18'0 0.0
2017-Sep-14 01:25N 51°19' E 004°18'0 0.0
2017-Sep-14 00:34N 51°19' E 004°18'0 0.1
2017-Sep-14 00:28N 51°19' E 004°18'0 0.0
2017-Sep-13 23:58N 51°19' E 004°18'0 0.0
2017-Sep-13 23:28N 51°19' E 004°18'0 0.0
2017-Sep-13 22:46N 51°19' E 004°18'0 0.5
2017-Sep-13 22:30N 51°19' E 004°19'2 3.7
2017-Sep-13 22:00N 51°21' E 004°17'0 0.2
2017-Sep-13 21:30N 51°21' E 004°17'1 2.6
2017-Sep-13 21:00N 51°21' E 004°15'2 4.9
2017-Sep-13 20:30N 51°23' E 004°13'5 9.0
2017-Sep-13 20:00N 51°22' E 004°06'510.1
2017-Sep-13 19:30N 51°26' E 004°00'611.2
2017-Sep-13 19:01N 51°22' E 003°55'510.9
2017-Sep-13 18:30N 51°21' E 003°46'0 0.1
2017-Sep-13 17:59N 51°21' E 003°46'0 0.0
2017-Sep-13 17:26N 51°21' E 003°46'0 0.0
2017-Sep-13 16:59N 51°21' E 003°46'0 0.0
2017-Sep-13 16:26N 51°21' E 003°46'0 0.0
2017-Sep-13 15:59N 51°21' E 003°46'0 0.0
2017-Sep-13 15:26N 51°21' E 003°46'0 0.0
2017-Sep-13 14:56N 51°21' E 003°46'0 0.0
2017-Sep-13 14:26N 51°21' E 003°46'0 0.0
2017-Sep-13 13:56N 51°21' E 003°46'0 0.0
2017-Sep-13 13:29N 51°21' E 003°46'0 0.0
2017-Sep-13 12:59N 51°21' E 003°46'0 0.0
2017-Sep-13 12:26N 51°21' E 003°46'0 0.0
2017-Sep-13 11:56N 51°21' E 003°46'0 0.0
2017-Sep-13 11:26N 51°21' E 003°46'0 0.0
2017-Sep-13 10:56N 51°21' E 003°46'0 0.0
2017-Sep-13 10:14N 51°21' E 003°46'0 0.0
2017-Sep-13 09:59N 51°21' E 003°46'0 0.0
2017-Sep-13 09:29N 51°21' E 003°46'0 0.0
2017-Sep-13 08:59N 51°21' E 003°46'0 0.0
2017-Sep-13 08:26N 51°21' E 003°46'0 0.0
2017-Sep-13 07:59N 51°21' E 003°46'0 0.0
2017-Sep-13 07:26N 51°21' E 003°46'0 0.0
2017-Sep-13 06:56N 51°21' E 003°46'0 0.0
2017-Sep-13 06:26N 51°21' E 003°46'0 0.0
2017-Sep-13 05:59N 51°21' E 003°46'0 0.0
2017-Sep-13 05:23N 51°21' E 003°46'0 0.0
2017-Sep-13 04:56N 51°21' E 003°46'0 0.0
2017-Sep-13 04:26N 51°21' E 003°46'0 0.0
2017-Sep-13 03:53N 51°21' E 003°46'0 0.0
2017-Sep-13 03:29N 51°21' E 003°46'0 0.0
2017-Sep-13 02:56N 51°21' E 003°46'0 0.0
2017-Sep-13 02:26N 51°21' E 003°46'0 0.0
2017-Sep-13 01:56N 51°21' E 003°46'0 0.0
2017-Sep-13 01:23N 51°21' E 003°46'0 0.0
2017-Sep-13 00:59N 51°21' E 003°46'0 0.0
2017-Sep-13 00:29N 51°21' E 003°46'0 0.0
2017-Sep-12 23:56N 51°21' E 003°46'0 0.0
2017-Sep-12 23:26N 51°21' E 003°46'0 0.0
2017-Sep-12 22:56N 51°21' E 003°46'0 0.0
2017-Sep-12 22:29N 51°21' E 003°46'0 0.0
2017-Sep-12 21:59N 51°21' E 003°46'0 0.0
2017-Sep-12 21:26N 51°21' E 003°46'0 0.0
2017-Sep-12 20:50N 51°21' E 003°46'0 0.0
2017-Sep-12 20:29N 51°21' E 003°46'0 0.0
2017-Sep-12 19:59N 51°21' E 003°46'0 0.0
2017-Sep-12 19:23N 51°21' E 003°46'0 0.0
2017-Sep-12 18:59N 51°21' E 003°46'0 0.0
2017-Sep-12 18:26N 51°21' E 003°46'0 0.0
2017-Sep-12 17:59N 51°21' E 003°46'0 0.0
2017-Sep-12 17:26N 51°21' E 003°46'0 0.0
2017-Sep-12 16:56N 51°21' E 003°46'0 0.0
2017-Sep-12 16:30N 51°21' E 003°46'1 2.4
2017-Sep-12 16:00N 51°22' E 003°45'612.3
2017-Sep-12 15:30N 51°26' E 003°38'816.2
2017-Sep-12 15:00N 51°25' E 003°26'715.0
2017-Sep-12 14:31N 51°24' E 003°14'714.1
2017-Sep-12 14:00N 51°24' E 003°02'613.0
2017-Sep-12 13:30N 51°22' E 002°53'612.5
2017-Sep-12 13:00N 51°22' E 002°43'510.0
2017-Sep-12 12:30N 51°21' E 002°35'3 5.3
2017-Sep-12 12:00N 51°20' E 002°31'0 0.1
2017-Sep-12 11:30N 51°20' E 002°31'0 0.0
2017-Sep-12 11:00N 51°20' E 002°31'0 0.1
2017-Sep-12 10:30N 51°20' E 002°31'0 0.2
2017-Sep-12 10:00N 51°20' E 002°32'0 0.1
2017-Sep-12 09:30N 51°20' E 002°32'0 0.1
2017-Sep-12 09:00N 51°20' E 002°32'0 0.0
2017-Sep-12 08:30N 51°20' E 002°32'0 0.0
2017-Sep-12 08:00N 51°20' E 002°32'0 0.0
2017-Sep-12 07:30N 51°20' E 002°32'0 0.0
2017-Sep-12 07:00N 51°20' E 002°32'0 0.0
2017-Sep-12 06:30N 51°20' E 002°32'0 0.0
2017-Sep-12 06:00N 51°20' E 002°32'0 0.0
2017-Sep-12 05:30N 51°20' E 002°32'0 0.0
2017-Sep-12 05:00N 51°20' E 002°32'0 0.0
2017-Sep-12 04:30N 51°20' E 002°32'0 0.0
2017-Sep-12 04:00N 51°20' E 002°32'0 0.0
2017-Sep-12 03:30N 51°20' E 002°32'0 0.0
2017-Sep-12 03:00N 51°20' E 002°32'0 0.1
2017-Sep-12 02:30N 51°20' E 002°32'0 0.1
2017-Sep-12 02:00N 51°20' E 002°32'  

Dump ship's entire track history